Terminal Aerodrome Forecast
Issued by NWS

Home | Current Version | Previous Version | Text Only | Print | Product List | Glossary On
Versions: 1 2 3 4 5 6 7 8 9 10 11 12 13 14 15 16 17 18 19 20 21 22 23 24 25 26 27
000
FTAK31 PAJN 310103 AAB
TAFAYA
TAF AMD
PAYA 310103Z 3101/3124 VRB05KT 4SM BR VCSH SCT006 BKN012 OVC030
      TEMPO 3101/3103 2SM -DZ BR BKN006 BKN010 OVC020
     FM310300 00000KT 3SM -DZ BR BKN006 OVC015
     FM310900 00000KT 3SM BR BKN004 OVC010
     FM311600 VRB02KT P6SM BKN006 OVC012
     FM311800 29005KT P6SM SCT008 BKN015 OVC040
     FM312200 28006KT P6SM SCT015 BKN025 OVC045
      AMD LTD TO CLD VIS AND WIND 3101/3109=

USA.gov is the U.S. government's official web portal to all federal, state and local government web resources and services.